HI1093 MDJB-MDJB
Flight info
| Callsign | HI1093 |
|---|---|
| Flight time | 0h 4m |
| Altitude | 800 |
| Route | VFR |
| Aircraft | AS50/L-SFG/C |
Departure
| Time | 2026-05-06 21:49 |
|---|---|
| Airport | La Isabela International Airport (MDJB) |
Arrival
| Time | 2026-05-06 21:53 |
|---|---|
| Airport | La Isabela International Airport (MDJB) |
| Time | Latitude | Longitude | Altitude | Speed | Heading |
|---|---|---|---|---|---|
| 2026-05-06 21:47 | 18.57884 | -69.98263 | 97 ft | 0 kts | 276° |
| 2026-05-06 21:47 | 18.57888 | -69.98298 | 105 ft | 9 kts | 225° |
| 2026-05-06 21:47 | 18.57734 | -69.98308 | 237 ft | 51 kts | 167° |
| 2026-05-06 21:48 | 18.57340 | -69.98168 | 326 ft | 55 kts | 154° |
| 2026-05-06 21:48 | 18.57093 | -69.98026 | 626 ft | 27 kts | 156° |
| 2026-05-06 21:48 | 18.56978 | -69.97939 | 801 ft | 21 kts | 160° |
| 2026-05-06 21:48 | 18.56527 | -69.97757 | 570 ft | 105 kts | 160° |
| 2026-05-06 21:49 | 18.55902 | -69.97486 | 888 ft | 100 kts | 155° |
| 2026-05-06 21:49 | 18.55168 | -69.97358 | 1095 ft | 115 kts | 169° |
| 2026-05-06 21:49 | 18.54322 | -69.97244 | 1101 ft | 131 kts | 168° |
| 2026-05-06 21:49 | 18.53383 | -69.97078 | 909 ft | 140 kts | 168° |
| 2026-05-06 21:50 | 18.52433 | -69.96887 | 782 ft | 137 kts | 166° |
| 2026-05-06 21:50 | 18.51505 | -69.96667 | 718 ft | 135 kts | 165° |
| 2026-05-06 21:50 | 18.50590 | -69.96449 | 674 ft | 133 kts | 166° |
| 2026-05-06 21:50 | 18.49683 | -69.96252 | 668 ft | 132 kts | 166° |
| 2026-05-06 21:51 | 18.48801 | -69.96074 | 671 ft | 128 kts | 166° |
| 2026-05-06 21:51 | 18.47935 | -69.95906 | 700 ft | 124 kts | 168° |
| 2026-05-06 21:51 | 18.47087 | -69.95725 | 723 ft | 126 kts | 167° |
| 2026-05-06 21:51 | 18.46216 | -69.95532 | 730 ft | 129 kts | 167° |
| 2026-05-06 21:52 | 18.45442 | -69.95286 | 690 ft | 99 kts | 161° |
| 2026-05-06 21:52 | 18.44718 | -69.95174 | 360 ft | 105 kts | 174° |
| 2026-05-06 21:52 | 18.44051 | -69.95087 | 252 ft | 103 kts | 167° |
| 2026-05-06 21:52 | 18.43537 | -69.94965 | 226 ft | 51 kts | 163° |
| 2026-05-06 21:53 | 18.43372 | -69.94764 | 122 ft | 20 kts | 102° |
| 2026-05-06 21:53 | 18.43382 | -69.94680 | 68 ft | 4 kts | 122° |
| 2026-05-06 21:53 | 18.43381 | -69.94674 | 50 ft | 0 kts | 174° |
| 2026-05-06 21:53 | 18.43388 | -69.94673 | 50 ft | 1 kts | 171° |
| 2026-05-06 21:54 | 18.43388 | -69.94668 | 54 ft | 5 kts | 179° |
| 2026-05-06 21:54 | 18.43390 | -69.94650 | 48 ft | 1 kts | 169° |
| 2026-05-06 22:15 | 18.43385 | -69.94369 | 98 ft | 87 kts | 70° |
| 2026-05-06 22:16 | 18.43682 | -69.93702 | 322 ft | 104 kts | 66° |
| 2026-05-06 22:16 | 18.44001 | -69.92919 | 366 ft | 129 kts | 69° |
| 2026-05-06 22:16 | 18.44384 | -69.92129 | 666 ft | 110 kts | 64° |
| 2026-05-06 22:16 | 18.44757 | -69.91489 | 881 ft | 101 kts | 62° |
| 2026-05-06 22:17 | 18.45123 | -69.90854 | 816 ft | 100 kts | 65° |
| 2026-05-06 22:17 | 18.45473 | -69.90253 | 647 ft | 88 kts | 64° |
| 2026-05-06 22:17 | 18.45767 | -69.89760 | 684 ft | 79 kts | 66° |
| 2026-05-06 22:17 | 18.46001 | -69.89146 | 796 ft | 103 kts | 73° |
| 2026-05-06 22:18 | 18.46241 | -69.88351 | 788 ft | 121 kts | 75° |
| 2026-05-06 22:18 | 18.46501 | -69.87444 | 744 ft | 138 kts | 76° |
| 2026-05-06 22:18 | 18.46604 | -69.86426 | 672 ft | 145 kts | 91° |
| 2026-05-06 22:18 | 18.46630 | -69.85351 | 647 ft | 149 kts | 91° |
| 2026-05-06 22:19 | 18.46668 | -69.84256 | 629 ft | 149 kts | 94° |
| 2026-05-06 22:19 | 18.46633 | -69.83179 | 619 ft | 145 kts | 94° |
| 2026-05-06 22:19 | 18.46619 | -69.82140 | 630 ft | 140 kts | 94° |
| 2026-05-06 22:19 | 18.46589 | -69.81125 | 630 ft | 137 kts | 98° |
| 2026-05-06 22:20 | 18.46469 | -69.80128 | 642 ft | 137 kts | 99° |
| 2026-05-06 22:20 | 18.46359 | -69.79154 | 627 ft | 131 kts | 100° |
| 2026-05-06 22:20 | 18.46286 | -69.78191 | 639 ft | 132 kts | 97° |
| 2026-05-06 22:20 | 18.46208 | -69.77227 | 643 ft | 133 kts | 98° |
| 2026-05-06 22:21 | 18.46130 | -69.76247 | 653 ft | 136 kts | 98° |
| 2026-05-06 22:21 | 18.45993 | -69.75271 | 645 ft | 137 kts | 102° |
| 2026-05-06 22:21 | 18.45842 | -69.74284 | 643 ft | 137 kts | 102° |
| 2026-05-06 22:21 | 18.45709 | -69.73290 | 645 ft | 135 kts | 101° |
| 2026-05-06 22:22 | 18.45580 | -69.72317 | 653 ft | 134 kts | 100° |
| 2026-05-06 22:22 | 18.45451 | -69.71350 | 653 ft | 131 kts | 100° |
| 2026-05-06 22:22 | 18.45361 | -69.70725 | 653 ft | 129 kts | 99° |
| 2026-05-06 22:22 | 18.45220 | -69.69782 | 670 ft | 131 kts | 100° |
| 2026-05-06 22:23 | 18.45134 | -69.68813 | 662 ft | 135 kts | 92° |
| 2026-05-06 22:23 | 18.45264 | -69.67829 | 655 ft | 137 kts | 79° |
| 2026-05-06 22:23 | 18.45643 | -69.66565 | 645 ft | 137 kts | 77° |
| 2026-05-06 22:23 | 18.45777 | -69.65904 | 646 ft | 135 kts | 83° |
| 2026-05-06 22:24 | 18.45879 | -69.64953 | 655 ft | 130 kts | 88° |
| 2026-05-06 22:24 | 18.45920 | -69.64028 | 723 ft | 125 kts | 90° |
| 2026-05-06 22:24 | 18.45916 | -69.63112 | 808 ft | 122 kts | 95° |
| 2026-05-06 22:24 | 18.45756 | -69.62254 | 781 ft | 124 kts | 122° |
| 2026-05-06 22:25 | 18.45027 | -69.61746 | 550 ft | 133 kts | 163° |
| 2026-05-06 22:25 | 18.44185 | -69.62058 | 399 ft | 139 kts | 225° |
| 2026-05-06 22:25 | 18.44211 | -69.62857 | 364 ft | 102 kts | 323° |
| 2026-05-06 22:25 | 18.44735 | -69.62772 | 364 ft | 76 kts | 59° |
| 2026-05-06 22:26 | 18.44883 | -69.62264 | 265 ft | 74 kts | 91° |
| 2026-05-06 22:26 | 18.44898 | -69.61881 | 178 ft | 27 kts | 88° |
| 2026-05-06 22:26 | 18.44918 | -69.61727 | 167 ft | 13 kts | 82° |
| 2026-05-06 22:26 | 18.44929 | -69.61697 | 97 ft | 1 kts | 68° |
| 2026-05-06 22:27 | 18.44961 | -69.61697 | 42 ft | 7 kts | 287° |
| 2026-05-06 22:27 | 18.44968 | -69.61713 | 34 ft | 3 kts | 69° |
| 2026-05-06 22:27 | 18.44967 | -69.61710 | 30 ft | 0 kts | 67° |
| 2026-05-06 22:30 | 18.44902 | -69.61588 | 181 ft | 55 kts | 128° |
| 2026-05-06 22:30 | 18.44382 | -69.61829 | 323 ft | 112 kts | 229° |
| 2026-05-06 22:30 | 18.44269 | -69.62701 | 623 ft | 125 kts | 271° |
| 2026-05-06 22:31 | 18.44501 | -69.63575 | 950 ft | 123 kts | 277° |
| 2026-05-06 22:31 | 18.44740 | -69.64448 | 1037 ft | 129 kts | 281° |
| 2026-05-06 22:31 | 18.44872 | -69.65407 | 1302 ft | 137 kts | 266° |
| 2026-05-06 22:31 | 18.44875 | -69.66481 | 1406 ft | 156 kts | 263° |
| 2026-05-06 22:32 | 18.44891 | -69.67697 | 1329 ft | 175 kts | 266° |
| 2026-05-06 22:32 | 18.44961 | -69.69014 | 1163 ft | 184 kts | 269° |
| 2026-05-06 22:32 | 18.45058 | -69.70375 | 1027 ft | 188 kts | 269° |
| 2026-05-06 22:32 | 18.45181 | -69.71738 | 997 ft | 185 kts | 271° |
| 2026-05-06 22:33 | 18.45312 | -69.73073 | 979 ft | 182 kts | 272° |
| 2026-05-06 22:33 | 18.45515 | -69.74336 | 954 ft | 167 kts | 277° |
| 2026-05-06 22:33 | 18.45778 | -69.75485 | 980 ft | 158 kts | 280° |
| 2026-05-06 22:33 | 18.46040 | -69.76595 | 962 ft | 153 kts | 281° |
| 2026-05-06 22:34 | 18.46300 | -69.77641 | 973 ft | 143 kts | 280° |
| 2026-05-06 22:34 | 18.46549 | -69.78632 | 975 ft | 137 kts | 281° |
| 2026-05-06 22:34 | 18.46775 | -69.79601 | 963 ft | 135 kts | 279° |
| 2026-05-06 22:34 | 18.47056 | -69.80512 | 967 ft | 127 kts | 291° |
| 2026-05-06 22:35 | 18.47566 | -69.81248 | 975 ft | 122 kts | 308° |
| 2026-05-06 22:35 | 18.48115 | -69.81913 | 970 ft | 118 kts | 308° |
| 2026-05-06 22:35 | 18.48647 | -69.82564 | 974 ft | 117 kts | 307° |
| 2026-05-06 22:35 | 18.49182 | -69.83218 | 967 ft | 118 kts | 306° |
| 2026-05-06 22:36 | 18.49713 | -69.83879 | 970 ft | 119 kts | 305° |
| 2026-05-06 22:36 | 18.50242 | -69.84563 | 971 ft | 121 kts | 304° |
| 2026-05-06 22:36 | 18.50772 | -69.85260 | 970 ft | 122 kts | 304° |
| 2026-05-06 22:36 | 18.51430 | -69.85819 | 973 ft | 125 kts | 324° |
| 2026-05-06 22:37 | 18.52096 | -69.86416 | 968 ft | 126 kts | 309° |
| 2026-05-06 22:37 | 18.52617 | -69.87151 | 982 ft | 128 kts | 301° |
| 2026-05-06 22:37 | 18.53129 | -69.87960 | 969 ft | 136 kts | 298° |
| 2026-05-06 22:37 | 18.53671 | -69.88801 | 968 ft | 140 kts | 299° |
| 2026-05-06 22:38 | 18.54221 | -69.89650 | 956 ft | 140 kts | 297° |
| 2026-05-06 22:38 | 18.54697 | -69.90541 | 937 ft | 138 kts | 294° |
| 2026-05-06 22:38 | 18.55119 | -69.91432 | 941 ft | 133 kts | 292° |
| 2026-05-06 22:38 | 18.55510 | -69.92295 | 958 ft | 128 kts | 292° |
| 2026-05-06 22:39 | 18.55875 | -69.93143 | 975 ft | 126 kts | 291° |
| 2026-05-06 22:39 | 18.56244 | -69.93987 | 996 ft | 129 kts | 291° |
| 2026-05-06 22:39 | 18.56652 | -69.94847 | 997 ft | 133 kts | 295° |
| 2026-05-06 22:39 | 18.57099 | -69.95708 | 991 ft | 134 kts | 295° |
| 2026-05-06 22:40 | 18.57564 | -69.96572 | 992 ft | 136 kts | 295° |
| 2026-05-06 22:40 | 18.58058 | -69.97372 | 687 ft | 126 kts | 306° |
| 2026-05-06 22:40 | 18.58398 | -69.98006 | 435 ft | 71 kts | 259° |
| 2026-05-06 22:40 | 18.58122 | -69.98288 | 237 ft | 48 kts | 195° |
| 2026-05-06 22:41 | 18.57855 | -69.98320 | 107 ft | 8 kts | 101° |
| 2026-05-06 22:41 | 18.57845 | -69.98267 | 102 ft | 4 kts | 96° |
| 2026-05-06 22:41 | 18.57843 | -69.98257 | 97 ft | 0 kts | 96° |